Airfield :







YOU CAN JOIN US ON...

 
LOGIN :

Register | Disclaimer

   EN    FR    IT 

 









Legend :    VFR   Marginal VFR   IFR   Intensive IFR   Very Intensive IFR
Visi :
Ceiling :
>= 8 km
>= 3000ft
5 to 8 km
1000 to 3000 ft
1500m to 5 km
500 to 1000 ft
800 to 1500m
200 to 500 ft
< 800m
< 200 ft
Symbols :   Thunderstorms  Fog  Heavy snow  Heavy precipitations  Wind > 20 kt






- Airport Elevation : 172 ft
- IATA code : YYY


CYYY - Mont Joli

CURRENT METAR :
  • 051900Z 26008KT 6SM -SN BKN010 OVC035 M02/M04 A2947 RMK SF6SC2 SLP985

EXPIRED METARs :
  • 051820Z 26006KT 6SM -SN BKN010 OVC035 M03/M04 A2946 RMK SF5SC2 SLP982
  • 051800Z 27007KT 3SM -SN BKN007 OVC025 M02/M04 A2946 RMK SF6SC8 SLP982
  • 051748Z 28006KT 2 1/2SM -SN BKN007 OVC025 M02/M04 A2946 RMK SF6SC8 SLP981
  • 051737Z 29006KT 3SM -SN SCT007 OVC030 M02/M04 A2946 RMK SF4SC6 SLP982
  • 051700Z 27004KT 8SM -SN FEW006 OVC017 M02/M04 A2946 RMK SF3SC8 SLP982
  • 051649Z 27005KT 6SM -SN FEW007 OVC017 M02/M04 A2946 RMK SF3SC8 SLP982
  • 051600Z 25004KT 8SM -SN BKN009 OVC030 M02/M04 A2946 RMK SF8SC8 SLP982

TAF AMD TAF CYYY
Valid from the 05 at 16:00 until the 06 at 02:00 UTC


051621Z 0516/0602 27007KT 11/2SM -SN OVC012
TEMPO 0516/0601 6SM -SN SCT012 OVC030
FM060100 27015KT 6SM -SN OVC025
TEMPO 0601/0602 2SM -SHSN OVC020 RMK NXT FCST BY 052000Z



MET'MAP, your aeronautical weather chart ! - Copyright ORBIFLY December 2007 - Disclaimer

ORBIFLY MET'MAP TEAM :

Programming & Development : Alexandra Zaïnal
Concept & original design : Baudouin d'Aumeries
Assistance for programming : Marc-Olivier Méhu
Technical & hardware support : Manuel Goepfert

Contact : metmap@orbifly.com




SOURCES & CREDITS :

   NOAA